sensor_id;sensor_type;location;lat;lon;timestamp;temperature;humidity
7972;DHT22;4031;49.758;6.120;2022-07-06T00:01:45;12.80;99.90
7972;DHT22;4031;49.758;6.120;2022-07-06T00:04:11;12.80;99.90
7972;DHT22;4031;49.758;6.120;2022-07-06T00:06:36;12.70;99.90
7972;DHT22;4031;49.758;6.120;2022-07-06T00:09:03;12.60;99.90
7972;DHT22;4031;49.758;6.120;2022-07-06T00:11:29;12.50;99.90
7972;DHT22;4031;49.758;6.120;2022-07-06T00:13:55;12.50;99.90
7972;DHT22;4031;49.758;6.120;2022-07-06T00:16:22;12.40;99.90
7972;DHT22;4031;49.758;6.120;2022-07-06T00:18:48;12.40;99.90
7972;DHT22;4031;49.758;6.120;2022-07-06T00:21:13;12.30;99.90
7972;DHT22;4031;49.758;6.120;2022-07-06T00:23:39;12.30;99.90
7972;DHT22;4031;49.758;6.120;2022-07-06T00:26:05;12.30;99.90
7972;DHT22;4031;49.758;6.120;2022-07-06T00:28:31;12.30;99.90
7972;DHT22;4031;49.758;6.120;2022-07-06T00:30:57;12.30;99.90
7972;DHT22;4031;49.758;6.120;2022-07-06T00:33:23;12.20;99.90
7972;DHT22;4031;49.758;6.120;2022-07-06T00:35:49;12.20;99.90
7972;DHT22;4031;49.758;6.120;2022-07-06T00:38:16;12.20;99.90
7972;DHT22;4031;49.758;6.120;2022-07-06T00:40:42;12.10;99.90
7972;DHT22;4031;49.758;6.120;2022-07-06T00:43:07;12.00;99.90
7972;DHT22;4031;49.758;6.120;2022-07-06T00:45:33;11.90;99.90
7972;DHT22;4031;49.758;6.120;2022-07-06T00:47:59;11.90;99.90
7972;DHT22;4031;49.758;6.120;2022-07-06T00:50:26;11.80;99.90
7972;DHT22;4031;49.758;6.120;2022-07-06T00:53:01;11.70;99.90
7972;DHT22;4031;49.758;6.120;2022-07-06T00:55:30;11.70;99.90
7972;DHT22;4031;49.758;6.120;2022-07-06T00:57:57;11.70;99.90
7972;DHT22;4031;49.758;6.120;2022-07-06T01:00:25;11.70;99.90
7972;DHT22;4031;49.758;6.120;2022-07-06T01:02:52;11.80;99.90
7972;DHT22;4031;49.758;6.120;2022-07-06T01:05:19;11.80;99.90
7972;DHT22;4031;49.758;6.120;2022-07-06T01:07:47;11.90;99.90
7972;DHT22;4031;49.758;6.120;2022-07-06T01:10:15;11.80;99.90
7972;DHT22;4031;49.758;6.120;2022-07-06T01:12:43;11.80;99.90
7972;DHT22;4031;49.758;6.120;2022-07-06T01:15:12;11.70;99.90
7972;DHT22;4031;49.758;6.120;2022-07-06T01:17:39;11.70;99.90
7972;DHT22;4031;49.758;6.120;2022-07-06T01:22:46;11.70;99.90
7972;DHT22;4031;49.758;6.120;2022-07-06T01:25:12;11.60;99.90
7972;DHT22;4031;49.758;6.120;2022-07-06T01:27:40;11.50;99.90
7972;DHT22;4031;49.758;6.120;2022-07-06T01:30:11;11.50;99.90
7972;DHT22;4031;49.758;6.120;2022-07-06T01:32:41;11.50;99.90
7972;DHT22;4031;49.758;6.120;2022-07-06T01:35:11;11.40;99.90
7972;DHT22;4031;49.758;6.120;2022-07-06T01:37:38;11.40;99.90
7972;DHT22;4031;49.758;6.120;2022-07-06T01:40:06;11.40;99.90
7972;DHT22;4031;49.758;6.120;2022-07-06T01:42:34;11.20;99.90
7972;DHT22;4031;49.758;6.120;2022-07-06T01:45:00;11.20;99.90
7972;DHT22;4031;49.758;6.120;2022-07-06T01:47:27;11.00;99.90
7972;DHT22;4031;49.758;6.120;2022-07-06T01:49:53;10.90;99.90
7972;DHT22;4031;49.758;6.120;2022-07-06T01:52:19;10.80;99.90
7972;DHT22;4031;49.758;6.120;2022-07-06T01:54:45;10.80;99.90
7972;DHT22;4031;49.758;6.120;2022-07-06T01:57:11;10.70;99.90
7972;DHT22;4031;49.758;6.120;2022-07-06T01:59:36;10.60;99.90
7972;DHT22;4031;49.758;6.120;2022-07-06T02:02:02;10.50;99.90
7972;DHT22;4031;49.758;6.120;2022-07-06T02:04:28;10.40;99.90
7972;DHT22;4031;49.758;6.120;2022-07-06T02:06:54;10.40;99.90
7972;DHT22;4031;49.758;6.120;2022-07-06T02:09:19;10.30;99.90
7972;DHT22;4031;49.758;6.120;2022-07-06T02:11:45;10.20;99.90
7972;DHT22;4031;49.758;6.120;2022-07-06T02:14:11;10.20;99.90
7972;DHT22;4031;49.758;6.120;2022-07-06T02:16:37;10.10;99.90
7972;DHT22;4031;49.758;6.120;2022-07-06T02:19:03;10.10;99.90
7972;DHT22;4031;49.758;6.120;2022-07-06T02:21:29;10.00;99.90
7972;DHT22;4031;49.758;6.120;2022-07-06T02:23:55;10.10;99.90
7972;DHT22;4031;49.758;6.120;2022-07-06T02:26:20;9.90;99.90
7972;DHT22;4031;49.758;6.120;2022-07-06T02:28:46;9.90;99.90
7972;DHT22;4031;49.758;6.120;2022-07-06T02:31:13;9.80;99.90
7972;DHT22;4031;49.758;6.120;2022-07-06T02:33:40;9.70;99.90
7972;DHT22;4031;49.758;6.120;2022-07-06T02:36:06;9.70;99.90
7972;DHT22;4031;49.758;6.120;2022-07-06T02:38:32;9.70;99.90
7972;DHT22;4031;49.758;6.120;2022-07-06T02:40:58;9.60;99.90
7972;DHT22;4031;49.758;6.120;2022-07-06T02:43:24;9.60;99.90
7972;DHT22;4031;49.758;6.120;2022-07-06T02:45:49;9.50;99.90
7972;DHT22;4031;49.758;6.120;2022-07-06T02:48:15;9.50;99.90
7972;DHT22;4031;49.758;6.120;2022-07-06T02:50:41;9.50;99.90
7972;DHT22;4031;49.758;6.120;2022-07-06T02:53:07;9.50;99.90
7972;DHT22;4031;49.758;6.120;2022-07-06T02:55:32;9.50;99.90
7972;DHT22;4031;49.758;6.120;2022-07-06T02:57:58;9.50;99.90
7972;DHT22;4031;49.758;6.120;2022-07-06T03:00:24;9.50;99.90
7972;DHT22;4031;49.758;6.120;2022-07-06T03:02:50;9.40;99.90
7972;DHT22;4031;49.758;6.120;2022-07-06T03:05:16;9.50;99.90
7972;DHT22;4031;49.758;6.120;2022-07-06T03:07:42;9.20;99.90
7972;DHT22;4031;49.758;6.120;2022-07-06T03:10:08;9.20;99.90
7972;DHT22;4031;49.758;6.120;2022-07-06T03:12:33;9.30;99.90
7972;DHT22;4031;49.758;6.120;2022-07-06T03:14:59;9.20;99.90
7972;DHT22;4031;49.758;6.120;2022-07-06T03:17:25;9.40;99.90
7972;DHT22;4031;49.758;6.120;2022-07-06T03:19:51;9.30;99.90
7972;DHT22;4031;49.758;6.120;2022-07-06T03:22:18;9.20;99.90
7972;DHT22;4031;49.758;6.120;2022-07-06T03:24:43;9.20;99.90
7972;DHT22;4031;49.758;6.120;2022-07-06T03:27:09;9.10;99.90
7972;DHT22;4031;49.758;6.120;2022-07-06T03:29:35;9.00;99.90
7972;DHT22;4031;49.758;6.120;2022-07-06T03:32:01;8.90;99.90
7972;DHT22;4031;49.758;6.120;2022-07-06T03:34:27;8.80;99.90
7972;DHT22;4031;49.758;6.120;2022-07-06T03:36:52;8.80;99.90
7972;DHT22;4031;49.758;6.120;2022-07-06T03:39:18;8.70;99.90
7972;DHT22;4031;49.758;6.120;2022-07-06T03:41:44;8.70;99.90
7972;DHT22;4031;49.758;6.120;2022-07-06T03:44:10;8.60;99.90
7972;DHT22;4031;49.758;6.120;2022-07-06T03:46:35;8.60;99.90
7972;DHT22;4031;49.758;6.120;2022-07-06T03:49:01;8.60;99.90
7972;DHT22;4031;49.758;6.120;2022-07-06T03:51:27;8.60;99.90
7972;DHT22;4031;49.758;6.120;2022-07-06T03:53:53;8.50;99.90
7972;DHT22;4031;49.758;6.120;2022-07-06T03:56:18;8.50;99.90
7972;DHT22;4031;49.758;6.120;2022-07-06T03:58:57;8.40;99.90
7972;DHT22;4031;49.758;6.120;2022-07-06T04:01:27;8.40;99.90
7972;DHT22;4031;49.758;6.120;2022-07-06T04:03:53;8.50;99.90
7972;DHT22;4031;49.758;6.120;2022-07-06T04:06:19;8.50;99.90
7972;DHT22;4031;49.758;6.120;2022-07-06T04:08:45;8.50;99.90
7972;DHT22;4031;49.758;6.120;2022-07-06T04:11:11;8.50;99.90
7972;DHT22;4031;49.758;6.120;2022-07-06T04:13:37;8.60;99.90
7972;DHT22;4031;49.758;6.120;2022-07-06T04:16:05;8.60;99.90
7972;DHT22;4031;49.758;6.120;2022-07-06T04:18:31;8.60;99.90
7972;DHT22;4031;49.758;6.120;2022-07-06T04:20:57;8.70;99.90
7972;DHT22;4031;49.758;6.120;2022-07-06T04:23:24;8.70;99.90
7972;DHT22;4031;49.758;6.120;2022-07-06T04:25:49;8.80;99.90
7972;DHT22;4031;49.758;6.120;2022-07-06T04:28:15;8.80;99.90
7972;DHT22;4031;49.758;6.120;2022-07-06T04:30:41;8.80;99.90
7972;DHT22;4031;49.758;6.120;2022-07-06T04:33:07;8.90;99.90
7972;DHT22;4031;49.758;6.120;2022-07-06T04:35:33;8.80;99.90
7972;DHT22;4031;49.758;6.120;2022-07-06T04:37:58;8.80;99.90
7972;DHT22;4031;49.758;6.120;2022-07-06T04:40:24;8.90;99.90
7972;DHT22;4031;49.758;6.120;2022-07-06T04:42:50;8.90;99.90
7972;DHT22;4031;49.758;6.120;2022-07-06T04:45:16;8.90;99.90
7972;DHT22;4031;49.758;6.120;2022-07-06T04:47:41;8.90;99.90
7972;DHT22;4031;49.758;6.120;2022-07-06T04:50:09;9.00;99.90
7972;DHT22;4031;49.758;6.120;2022-07-06T04:52:35;9.00;99.90
7972;DHT22;4031;49.758;6.120;2022-07-06T04:55:01;9.10;99.90
7972;DHT22;4031;49.758;6.120;2022-07-06T04:57:30;9.20;99.90
7972;DHT22;4031;49.758;6.120;2022-07-06T04:59:55;9.30;99.90
7972;DHT22;4031;49.758;6.120;2022-07-06T05:02:22;9.40;99.90
7972;DHT22;4031;49.758;6.120;2022-07-06T05:04:48;9.50;99.90
7972;DHT22;4031;49.758;6.120;2022-07-06T05:07:14;9.70;99.90
7972;DHT22;4031;49.758;6.120;2022-07-06T05:09:40;9.80;99.90
7972;DHT22;4031;49.758;6.120;2022-07-06T05:12:06;9.90;99.90
7972;DHT22;4031;49.758;6.120;2022-07-06T05:14:33;10.00;99.90
7972;DHT22;4031;49.758;6.120;2022-07-06T05:16:59;10.10;99.90
7972;DHT22;4031;49.758;6.120;2022-07-06T05:19:25;10.10;99.90
7972;DHT22;4031;49.758;6.120;2022-07-06T05:21:51;10.20;99.90
7972;DHT22;4031;49.758;6.120;2022-07-06T05:24:16;10.20;99.90
7972;DHT22;4031;49.758;6.120;2022-07-06T05:26:43;10.30;99.90
7972;DHT22;4031;49.758;6.120;2022-07-06T05:29:09;10.40;99.90
7972;DHT22;4031;49.758;6.120;2022-07-06T05:31:34;10.50;99.90
7972;DHT22;4031;49.758;6.120;2022-07-06T05:34:01;10.60;99.90
7972;DHT22;4031;49.758;6.120;2022-07-06T05:36:26;10.70;99.90
7972;DHT22;4031;49.758;6.120;2022-07-06T05:38:52;10.80;99.90
7972;DHT22;4031;49.758;6.120;2022-07-06T05:41:18;10.80;99.90
7972;DHT22;4031;49.758;6.120;2022-07-06T05:43:43;10.90;99.90
7972;DHT22;4031;49.758;6.120;2022-07-06T05:46:09;11.00;99.90
7972;DHT22;4031;49.758;6.120;2022-07-06T05:48:35;11.10;99.90
7972;DHT22;4031;49.758;6.120;2022-07-06T05:51:19;11.20;99.90
7972;DHT22;4031;49.758;6.120;2022-07-06T05:53:45;11.40;99.90
7972;DHT22;4031;49.758;6.120;2022-07-06T05:56:11;11.50;99.90
7972;DHT22;4031;49.758;6.120;2022-07-06T05:58:36;11.70;99.90
7972;DHT22;4031;49.758;6.120;2022-07-06T06:01:02;11.90;99.90
7972;DHT22;4031;49.758;6.120;2022-07-06T06:03:28;12.20;99.90
7972;DHT22;4031;49.758;6.120;2022-07-06T06:05:54;12.60;99.90
7972;DHT22;4031;49.758;6.120;2022-07-06T06:08:19;12.90;99.90
7972;DHT22;4031;49.758;6.120;2022-07-06T06:10:45;13.20;99.90
7972;DHT22;4031;49.758;6.120;2022-07-06T06:13:11;13.70;99.90
7972;DHT22;4031;49.758;6.120;2022-07-06T06:15:37;14.00;99.90
7972;DHT22;4031;49.758;6.120;2022-07-06T06:18:03;14.30;99.90
7972;DHT22;4031;49.758;6.120;2022-07-06T06:20:31;14.60;99.90
7972;DHT22;4031;49.758;6.120;2022-07-06T06:22:58;14.80;99.90
7972;DHT22;4031;49.758;6.120;2022-07-06T06:25:33;15.10;99.90
7972;DHT22;4031;49.758;6.120;2022-07-06T06:28:01;15.80;99.90
7972;DHT22;4031;49.758;6.120;2022-07-06T06:30:28;16.50;99.90
7972;DHT22;4031;49.758;6.120;2022-07-06T06:33:19;17.40;99.90
7972;DHT22;4031;49.758;6.120;2022-07-06T06:35:47;18.40;99.90
7972;DHT22;4031;49.758;6.120;2022-07-06T06:38:17;19.20;99.90
7972;DHT22;4031;49.758;6.120;2022-07-06T06:40:43;19.70;99.90
7972;DHT22;4031;49.758;6.120;2022-07-06T06:43:09;20.30;99.90
7972;DHT22;4031;49.758;6.120;2022-07-06T06:45:35;20.70;99.90
7972;DHT22;4031;49.758;6.120;2022-07-06T06:48:01;21.00;99.90
7972;DHT22;4031;49.758;6.120;2022-07-06T06:50:27;21.50;99.90
7972;DHT22;4031;49.758;6.120;2022-07-06T06:52:53;22.10;99.90
7972;DHT22;4031;49.758;6.120;2022-07-06T06:55:18;22.70;99.90
7972;DHT22;4031;49.758;6.120;2022-07-06T06:57:44;23.30;99.90
7972;DHT22;4031;49.758;6.120;2022-07-06T07:00:10;23.70;99.90
7972;DHT22;4031;49.758;6.120;2022-07-06T07:02:36;24.20;99.90
7972;DHT22;4031;49.758;6.120;2022-07-06T07:05:04;24.60;99.90
7972;DHT22;4031;49.758;6.120;2022-07-06T07:07:30;24.90;99.90
7972;DHT22;4031;49.758;6.120;2022-07-06T07:09:56;25.50;99.90
7972;DHT22;4031;49.758;6.120;2022-07-06T07:12:22;25.60;99.90
7972;DHT22;4031;49.758;6.120;2022-07-06T07:14:48;25.40;96.20
7972;DHT22;4031;49.758;6.120;2022-07-06T07:17:14;25.20;96.10
7972;DHT22;4031;49.758;6.120;2022-07-06T07:19:40;25.40;93.30
7972;DHT22;4031;49.758;6.120;2022-07-06T07:22:06;25.60;92.40
7972;DHT22;4031;49.758;6.120;2022-07-06T07:24:32;25.90;92.30
7972;DHT22;4031;49.758;6.120;2022-07-06T07:26:58;26.30;92.10
7972;DHT22;4031;49.758;6.120;2022-07-06T07:29:23;26.40;86.80
7972;DHT22;4031;49.758;6.120;2022-07-06T07:31:49;26.00;85.00
7972;DHT22;4031;49.758;6.120;2022-07-06T07:34:15;25.70;85.40
7972;DHT22;4031;49.758;6.120;2022-07-06T07:36:41;25.60;80.30
7972;DHT22;4031;49.758;6.120;2022-07-06T07:39:07;25.80;80.60
7972;DHT22;4031;49.758;6.120;2022-07-06T07:41:33;26.30;78.60
7972;DHT22;4031;49.758;6.120;2022-07-06T07:43:58;26.60;78.80
7972;DHT22;4031;49.758;6.120;2022-07-06T07:46:24;26.70;75.60
7972;DHT22;4031;49.758;6.120;2022-07-06T07:48:50;27.10;77.20
7972;DHT22;4031;49.758;6.120;2022-07-06T07:51:15;27.70;75.50
7972;DHT22;4031;49.758;6.120;2022-07-06T07:53:41;27.80;70.80
7972;DHT22;4031;49.758;6.120;2022-07-06T07:56:07;27.70;68.80
7972;DHT22;4031;49.758;6.120;2022-07-06T07:58:33;27.10;65.00
7972;DHT22;4031;49.758;6.120;2022-07-06T08:01:00;26.90;66.10
7972;DHT22;4031;49.758;6.120;2022-07-06T08:03:26;26.90;66.20
7972;DHT22;4031;49.758;6.120;2022-07-06T08:05:51;26.90;63.80
7972;DHT22;4031;49.758;6.120;2022-07-06T08:08:18;26.70;61.70
7972;DHT22;4031;49.758;6.120;2022-07-06T08:10:44;27.00;62.70
7972;DHT22;4031;49.758;6.120;2022-07-06T08:13:10;27.00;59.90
7972;DHT22;4031;49.758;6.120;2022-07-06T08:15:36;27.40;60.10
7972;DHT22;4031;49.758;6.120;2022-07-06T08:18:03;27.80;61.30
7972;DHT22;4031;49.758;6.120;2022-07-06T08:20:29;28.30;60.20
7972;DHT22;4031;49.758;6.120;2022-07-06T08:22:55;28.50;60.10
7972;DHT22;4031;49.758;6.120;2022-07-06T08:25:21;28.90;57.80
7972;DHT22;4031;49.758;6.120;2022-07-06T08:27:47;29.70;57.70
7972;DHT22;4031;49.758;6.120;2022-07-06T08:30:13;30.20;57.40
7972;DHT22;4031;49.758;6.120;2022-07-06T08:32:40;30.70;56.40
7972;DHT22;4031;49.758;6.120;2022-07-06T08:35:07;31.00;55.50
7972;DHT22;4031;49.758;6.120;2022-07-06T08:37:33;30.70;54.30
7972;DHT22;4031;49.758;6.120;2022-07-06T08:39:59;30.00;54.70
7972;DHT22;4031;49.758;6.120;2022-07-06T08:42:33;28.60;55.30
7972;DHT22;4031;49.758;6.120;2022-07-06T08:45:01;27.50;55.50
7972;DHT22;4031;49.758;6.120;2022-07-06T08:47:28;26.70;55.20
7972;DHT22;4031;49.758;6.120;2022-07-06T08:49:55;25.70;55.10
7972;DHT22;4031;49.758;6.120;2022-07-06T08:52:23;24.80;56.30
7972;DHT22;4031;49.758;6.120;2022-07-06T08:54:49;24.20;56.50
7972;DHT22;4031;49.758;6.120;2022-07-06T08:57:15;23.70;57.10
7972;DHT22;4031;49.758;6.120;2022-07-06T08:59:41;24.10;58.40
7972;DHT22;4031;49.758;6.120;2022-07-06T09:02:12;23.70;58.30
7972;DHT22;4031;49.758;6.120;2022-07-06T09:04:39;24.40;58.80
7972;DHT22;4031;49.758;6.120;2022-07-06T09:07:06;25.60;57.40
7972;DHT22;4031;49.758;6.120;2022-07-06T09:09:33;26.90;56.90
7972;DHT22;4031;49.758;6.120;2022-07-06T09:11:59;27.80;55.50
7972;DHT22;4031;49.758;6.120;2022-07-06T09:14:25;27.80;55.40
7972;DHT22;4031;49.758;6.120;2022-07-06T09:17:05;26.50;55.80
7972;DHT22;4031;49.758;6.120;2022-07-06T09:19:33;25.30;55.50
7972;DHT22;4031;49.758;6.120;2022-07-06T09:22:00;24.70;56.80
7972;DHT22;4031;49.758;6.120;2022-07-06T09:24:26;25.40;56.50
7972;DHT22;4031;49.758;6.120;2022-07-06T09:26:56;25.50;56.40
7972;DHT22;4031;49.758;6.120;2022-07-06T09:29:30;26.60;55.50
7972;DHT22;4031;49.758;6.120;2022-07-06T09:31:58;27.60;53.90
7972;DHT22;4031;49.758;6.120;2022-07-06T09:34:46;28.80;52.80
7972;DHT22;4031;49.758;6.120;2022-07-06T09:37:13;29.40;52.70
7972;DHT22;4031;49.758;6.120;2022-07-06T09:39:40;29.70;50.20
7972;DHT22;4031;49.758;6.120;2022-07-06T09:42:08;29.90;50.40
7972;DHT22;4031;49.758;6.120;2022-07-06T09:44:36;30.10;50.20
7972;DHT22;4031;49.758;6.120;2022-07-06T09:47:10;30.50;50.20
7972;DHT22;4031;49.758;6.120;2022-07-06T09:49:38;30.70;48.70
7972;DHT22;4031;49.758;6.120;2022-07-06T09:52:07;31.60;49.50
7972;DHT22;4031;49.758;6.120;2022-07-06T09:54:35;30.00;47.90
7972;DHT22;4031;49.758;6.120;2022-07-06T09:57:04;28.10;49.40
7972;DHT22;4031;49.758;6.120;2022-07-06T09:59:33;28.20;50.00
7972;DHT22;4031;49.758;6.120;2022-07-06T10:02:06;29.30;50.20
7972;DHT22;4031;49.758;6.120;2022-07-06T10:04:33;29.60;48.40
7972;DHT22;4031;49.758;6.120;2022-07-06T10:07:00;29.50;48.70
7972;DHT22;4031;49.758;6.120;2022-07-06T10:09:27;29.10;46.60
7972;DHT22;4031;49.758;6.120;2022-07-06T10:14:23;28.30;48.10
7972;DHT22;4031;49.758;6.120;2022-07-06T10:16:51;27.20;49.40
7972;DHT22;4031;49.758;6.120;2022-07-06T10:19:20;26.90;49.50
7972;DHT22;4031;49.758;6.120;2022-07-06T10:21:47;27.50;50.90
7972;DHT22;4031;49.758;6.120;2022-07-06T10:24:13;27.50;49.30
7972;DHT22;4031;49.758;6.120;2022-07-06T10:26:40;27.80;50.60
7972;DHT22;4031;49.758;6.120;2022-07-06T10:29:07;29.10;47.70
7972;DHT22;4031;49.758;6.120;2022-07-06T10:31:37;29.90;49.00
7972;DHT22;4031;49.758;6.120;2022-07-06T10:34:06;29.30;46.80
7972;DHT22;4031;49.758;6.120;2022-07-06T10:36:37;29.30;47.50
7972;DHT22;4031;49.758;6.120;2022-07-06T10:39:04;29.50;48.40
7972;DHT22;4031;49.758;6.120;2022-07-06T10:41:50;29.60;48.50
7972;DHT22;4031;49.758;6.120;2022-07-06T10:44:21;29.60;47.20
7972;DHT22;4031;49.758;6.120;2022-07-06T10:46:56;28.60;48.40
7972;DHT22;4031;49.758;6.120;2022-07-06T10:49:24;29.10;49.90
7972;DHT22;4031;49.758;6.120;2022-07-06T10:51:51;29.80;48.30
7972;DHT22;4031;49.758;6.120;2022-07-06T10:54:19;29.80;46.50
7972;DHT22;4031;49.758;6.120;2022-07-06T10:56:48;29.60;47.20
7972;DHT22;4031;49.758;6.120;2022-07-06T10:59:23;28.70;47.60
7972;DHT22;4031;49.758;6.120;2022-07-06T11:02:17;29.00;49.40
7972;DHT22;4031;49.758;6.120;2022-07-06T11:04:46;29.90;48.00
7972;DHT22;4031;49.758;6.120;2022-07-06T11:07:14;30.00;48.20
7972;DHT22;4031;49.758;6.120;2022-07-06T11:09:41;29.30;47.90
7972;DHT22;4031;49.758;6.120;2022-07-06T11:12:17;29.80;48.00
7972;DHT22;4031;49.758;6.120;2022-07-06T11:14:50;30.10;47.30
7972;DHT22;4031;49.758;6.120;2022-07-06T11:17:17;30.20;47.60
7972;DHT22;4031;49.758;6.120;2022-07-06T11:19:50;29.90;48.20
7972;DHT22;4031;49.758;6.120;2022-07-06T11:22:23;29.80;47.40
7972;DHT22;4031;49.758;6.120;2022-07-06T11:24:50;30.10;47.50
7972;DHT22;4031;49.758;6.120;2022-07-06T11:27:23;30.20;47.30
7972;DHT22;4031;49.758;6.120;2022-07-06T11:29:49;30.40;47.60
7972;DHT22;4031;49.758;6.120;2022-07-06T11:32:14;30.40;46.30
7972;DHT22;4031;49.758;6.120;2022-07-06T11:34:42;30.50;45.60
7972;DHT22;4031;49.758;6.120;2022-07-06T11:37:13;30.70;46.80
7972;DHT22;4031;49.758;6.120;2022-07-06T11:39:41;30.40;46.60
7972;DHT22;4031;49.758;6.120;2022-07-06T11:42:09;30.40;45.50
7972;DHT22;4031;49.758;6.120;2022-07-06T11:44:37;30.50;45.50
7972;DHT22;4031;49.758;6.120;2022-07-06T11:47:05;30.30;47.10
7972;DHT22;4031;49.758;6.120;2022-07-06T11:49:32;29.40;47.30
7972;DHT22;4031;49.758;6.120;2022-07-06T11:52:14;28.60;47.50
7972;DHT22;4031;49.758;6.120;2022-07-06T11:54:41;28.00;48.70
7972;DHT22;4031;49.758;6.120;2022-07-06T11:57:08;27.90;47.60
7972;DHT22;4031;49.758;6.120;2022-07-06T11:59:36;27.70;46.50
7972;DHT22;4031;49.758;6.120;2022-07-06T12:02:08;27.60;48.60
7972;DHT22;4031;49.758;6.120;2022-07-06T12:04:37;27.70;48.20
7972;DHT22;4031;49.758;6.120;2022-07-06T12:07:08;27.50;47.80
7972;DHT22;4031;49.758;6.120;2022-07-06T12:09:40;27.30;48.70
7972;DHT22;4031;49.758;6.120;2022-07-06T12:12:10;27.30;49.40
7972;DHT22;4031;49.758;6.120;2022-07-06T12:14:40;27.40;49.20
7972;DHT22;4031;49.758;6.120;2022-07-06T12:17:15;27.50;49.30
7972;DHT22;4031;49.758;6.120;2022-07-06T12:19:41;28.10;48.30
7972;DHT22;4031;49.758;6.120;2022-07-06T12:22:08;28.50;48.80
7972;DHT22;4031;49.758;6.120;2022-07-06T12:24:36;29.70;48.50
7972;DHT22;4031;49.758;6.120;2022-07-06T12:27:33;30.20;48.60
7972;DHT22;4031;49.758;6.120;2022-07-06T12:30:09;30.80;47.50
7972;DHT22;4031;49.758;6.120;2022-07-06T12:32:35;30.30;46.80
7972;DHT22;4031;49.758;6.120;2022-07-06T12:35:08;29.60;46.30
7972;DHT22;4031;49.758;6.120;2022-07-06T12:37:35;28.80;47.40
7972;DHT22;4031;49.758;6.120;2022-07-06T12:40:02;27.70;48.00
7972;DHT22;4031;49.758;6.120;2022-07-06T12:42:48;27.70;49.50
7972;DHT22;4031;49.758;6.120;2022-07-06T12:45:14;27.70;49.20
7972;DHT22;4031;49.758;6.120;2022-07-06T12:47:41;27.40;49.60
7972;DHT22;4031;49.758;6.120;2022-07-06T12:50:09;27.30;50.30
7972;DHT22;4031;49.758;6.120;2022-07-06T12:52:37;27.00;49.40
7972;DHT22;4031;49.758;6.120;2022-07-06T12:55:05;26.60;50.30
7972;DHT22;4031;49.758;6.120;2022-07-06T12:57:44;26.20;51.50
7972;DHT22;4031;49.758;6.120;2022-07-06T13:00:12;25.90;53.10
7972;DHT22;4031;49.758;6.120;2022-07-06T13:02:38;25.70;51.80
7972;DHT22;4031;49.758;6.120;2022-07-06T13:05:09;25.30;51.40
7972;DHT22;4031;49.758;6.120;2022-07-06T13:07:37;24.90;53.50
7972;DHT22;4031;49.758;6.120;2022-07-06T13:10:06;24.60;53.30
7972;DHT22;4031;49.758;6.120;2022-07-06T13:12:34;24.40;53.80
7972;DHT22;4031;49.758;6.120;2022-07-06T13:15:00;24.60;54.50
7972;DHT22;4031;49.758;6.120;2022-07-06T13:17:26;24.50;53.30
7972;DHT22;4031;49.758;6.120;2022-07-06T13:19:52;24.50;54.10
7972;DHT22;4031;49.758;6.120;2022-07-06T13:22:18;24.60;55.40
7972;DHT22;4031;49.758;6.120;2022-07-06T13:24:44;24.80;53.70
7972;DHT22;4031;49.758;6.120;2022-07-06T13:27:11;25.10;54.10
7972;DHT22;4031;49.758;6.120;2022-07-06T13:29:37;25.40;54.60
7972;DHT22;4031;49.758;6.120;2022-07-06T13:32:04;25.80;54.30
7972;DHT22;4031;49.758;6.120;2022-07-06T13:34:30;26.10;53.20
7972;DHT22;4031;49.758;6.120;2022-07-06T13:36:57;26.30;52.80
7972;DHT22;4031;49.758;6.120;2022-07-06T13:39:23;26.60;52.80
7972;DHT22;4031;49.758;6.120;2022-07-06T13:41:49;26.80;51.90
7972;DHT22;4031;49.758;6.120;2022-07-06T13:44:15;26.30;52.30
7972;DHT22;4031;49.758;6.120;2022-07-06T13:46:41;26.20;53.00
7972;DHT22;4031;49.758;6.120;2022-07-06T13:49:08;25.90;53.20
7972;DHT22;4031;49.758;6.120;2022-07-06T13:51:33;26.10;53.20
7972;DHT22;4031;49.758;6.120;2022-07-06T13:54:00;25.50;52.40
7972;DHT22;4031;49.758;6.120;2022-07-06T13:56:26;25.10;54.40
7972;DHT22;4031;49.758;6.120;2022-07-06T13:58:53;25.40;55.30
7972;DHT22;4031;49.758;6.120;2022-07-06T14:01:19;25.70;55.30
7972;DHT22;4031;49.758;6.120;2022-07-06T14:03:45;26.10;55.10
7972;DHT22;4031;49.758;6.120;2022-07-06T14:06:11;26.50;53.40
7972;DHT22;4031;49.758;6.120;2022-07-06T14:08:38;26.60;52.70
7972;DHT22;4031;49.758;6.120;2022-07-06T14:11:05;26.60;54.70
7972;DHT22;4031;49.758;6.120;2022-07-06T14:13:33;27.30;53.10
7972;DHT22;4031;49.758;6.120;2022-07-06T14:16:00;27.70;52.60
7972;DHT22;4031;49.758;6.120;2022-07-06T14:18:26;27.70;53.00
7972;DHT22;4031;49.758;6.120;2022-07-06T14:20:52;27.70;52.60
7972;DHT22;4031;49.758;6.120;2022-07-06T14:23:19;27.40;51.70
7972;DHT22;4031;49.758;6.120;2022-07-06T14:25:45;27.10;51.90
7972;DHT22;4031;49.758;6.120;2022-07-06T14:28:12;26.60;51.90
7972;DHT22;4031;49.758;6.120;2022-07-06T14:30:39;26.60;53.60
7972;DHT22;4031;49.758;6.120;2022-07-06T14:33:07;27.10;51.70
7972;DHT22;4031;49.758;6.120;2022-07-06T14:35:38;27.60;52.60
7972;DHT22;4031;49.758;6.120;2022-07-06T14:38:05;27.70;52.00
7972;DHT22;4031;49.758;6.120;2022-07-06T14:40:32;27.20;52.00
7972;DHT22;4031;49.758;6.120;2022-07-06T14:42:59;27.20;53.10
7972;DHT22;4031;49.758;6.120;2022-07-06T14:45:25;27.70;52.70
7972;DHT22;4031;49.758;6.120;2022-07-06T14:47:51;28.60;52.70
7972;DHT22;4031;49.758;6.120;2022-07-06T14:50:17;29.20;51.30
7972;DHT22;4031;49.758;6.120;2022-07-06T14:52:43;30.00;50.90
7972;DHT22;4031;49.758;6.120;2022-07-06T14:55:09;30.70;50.30
7972;DHT22;4031;49.758;6.120;2022-07-06T14:57:35;30.20;49.50
7972;DHT22;4031;49.758;6.120;2022-07-06T15:00:02;30.20;49.60
7972;DHT22;4031;49.758;6.120;2022-07-06T15:02:29;30.30;49.30
7972;DHT22;4031;49.758;6.120;2022-07-06T15:04:55;29.80;49.00
7972;DHT22;4031;49.758;6.120;2022-07-06T15:07:21;29.10;48.90
7972;DHT22;4031;49.758;6.120;2022-07-06T15:09:46;28.20;49.60
7972;DHT22;4031;49.758;6.120;2022-07-06T15:12:12;27.30;50.70
7972;DHT22;4031;49.758;6.120;2022-07-06T15:14:38;27.00;52.00
7972;DHT22;4031;49.758;6.120;2022-07-06T15:17:05;26.70;51.80
7972;DHT22;4031;49.758;6.120;2022-07-06T15:19:31;26.70;51.90
7972;DHT22;4031;49.758;6.120;2022-07-06T15:21:57;27.10;51.20
7972;DHT22;4031;49.758;6.120;2022-07-06T15:24:22;27.20;51.40
7972;DHT22;4031;49.758;6.120;2022-07-06T15:26:50;26.90;51.90
7972;DHT22;4031;49.758;6.120;2022-07-06T15:29:16;26.80;52.90
7972;DHT22;4031;49.758;6.120;2022-07-06T15:31:42;27.00;52.90
7972;DHT22;4031;49.758;6.120;2022-07-06T15:34:07;26.90;52.90
7972;DHT22;4031;49.758;6.120;2022-07-06T15:36:33;27.30;53.50
7972;DHT22;4031;49.758;6.120;2022-07-06T15:38:59;27.60;53.60
7972;DHT22;4031;49.758;6.120;2022-07-06T15:41:25;27.60;52.20
7972;DHT22;4031;49.758;6.120;2022-07-06T15:43:50;27.60;52.40
7972;DHT22;4031;49.758;6.120;2022-07-06T15:46:17;27.60;52.10
7972;DHT22;4031;49.758;6.120;2022-07-06T15:48:43;27.10;51.70
7972;DHT22;4031;49.758;6.120;2022-07-06T15:51:09;26.50;52.50
7972;DHT22;4031;49.758;6.120;2022-07-06T15:53:34;26.30;52.60
7972;DHT22;4031;49.758;6.120;2022-07-06T15:56:00;26.30;51.90
7972;DHT22;4031;49.758;6.120;2022-07-06T15:58:29;26.30;53.20
7972;DHT22;4031;49.758;6.120;2022-07-06T16:00:55;26.50;51.90
7972;DHT22;4031;49.758;6.120;2022-07-06T16:03:21;26.70;51.00
7972;DHT22;4031;49.758;6.120;2022-07-06T16:05:49;26.70;52.00
7972;DHT22;4031;49.758;6.120;2022-07-06T16:08:15;26.90;52.40
7972;DHT22;4031;49.758;6.120;2022-07-06T16:10:41;26.70;50.90